Time;durP1;ratioP1;P1;durP2;ratioP2;P2;SDS_P1;SDS_P2;PMS_P1;PMS_P2;Temp;Humidity;BMP_temperature;BMP_pressure;BME280_temperature;BME280_humidity;BME280_pressure;Samples;Min_cycle;Max_cycle;Signal;HPM_P1;HPM_P2
2021/07/24 00:01:08;;;;;;;;;;;;;;;29.38;70.50;100645.69;5119724;27;69991;-37
2021/07/24 00:03:40;;;;;;;9.30;5.18;;;;;;;29.65;68.36;100648.28;5123123;27;66648;-35
2021/07/24 00:06:29;;;;;;;6.97;4.97;;;;;;;29.70;69.70;100648.47;5120118;27;70036;-35
2021/07/24 00:09:04;;;;;;;17.02;5.53;;;;;;;29.74;68.40;100641.56;5123125;27;65892;-34
2021/07/24 00:11:35;;;;;;;8.73;5.28;;;;;;;29.76;69.08;100641.34;5118942;27;70492;-34
2021/07/24 00:14:06;;;;;;;10.77;5.97;;;;;;;29.84;68.75;100643.78;5128472;27;66474;-34
2021/07/24 00:16:36;;;;;;;5.63;5.00;;;;;;;29.88;68.74;100639.59;5124640;27;70688;-35
2021/07/24 00:19:07;;;;;;;10.48;5.07;;;;;;;29.92;69.40;100634.56;5127522;27;67112;-36
2021/07/24 00:21:37;;;;;;;10.43;6.07;;;;;;;29.89;69.73;100640.41;5122893;27;70406;-35
2021/07/24 00:24:08;;;;;;;12.50;6.18;;;;;;;29.84;70.29;100636.50;5133772;27;66721;-42
2021/07/24 00:26:38;;;;;;;11.02;5.97;;;;;;;29.97;69.83;100645.56;5119659;27;70598;-42
2021/07/24 00:29:09;;;;;;;13.45;5.60;;;;;;;30.00;69.74;100645.09;5103043;27;66727;-37
2021/07/24 00:31:39;;;;;;;16.08;5.85;;;;;;;29.99;70.15;100635.34;5113188;27;69983;-36
2021/07/24 00:34:10;;;;;;;9.57;6.03;;;;;;;29.93;69.54;100630.81;5126130;27;66287;-37
2021/07/24 00:36:41;;;;;;;11.98;5.75;;;;;;;30.04;70.15;100651.75;5122252;27;69157;-37
2021/07/24 00:39:12;;;;;;;10.48;5.57;;;;;;;30.04;70.76;100644.47;5122704;27;66625;-36
2021/07/24 00:42:12;;;;;;;12.27;5.60;;;;;;;30.02;71.54;100634.91;5116637;27;70092;-36
2021/07/24 00:44:47;;;;;;;15.10;6.07;;;;;;;30.12;70.55;100648.78;5121226;27;66418;-37
2021/07/24 00:47:20;;;;;;;13.65;7.60;;;;;;;30.14;70.31;100660.19;5119096;27;69289;-38
2021/07/24 00:49:58;;;;;;;14.43;7.00;;;;;;;29.98;71.20;100617.47;5116079;27;65779;-37
2021/07/24 00:52:30;;;;;;;12.55;7.53;;;;;;;30.11;70.77;100646.28;5121591;27;68941;-37
2021/07/24 00:55:01;;;;;;;11.05;6.22;;;;;;;30.14;71.72;100665.59;5121035;27;65542;-37
2021/07/24 00:57:31;;;;;;;13.50;7.60;;;;;;;30.12;71.07;100639.84;5102983;27;70132;-37
2021/07/24 01:00:06;;;;;;;10.95;6.32;;;;;;;30.21;71.34;100652.84;5122235;27;66203;-37
2021/07/24 01:02:40;;;;;;;14.68;7.00;;;;;;;30.24;70.75;100649.72;5110631;27;69758;-37
2021/07/24 01:05:14;;;;;;;9.98;5.45;;;;;;;30.24;70.62;100644.31;5120371;27;65410;-38
2021/07/24 01:07:44;;;;;;;9.27;6.13;;;;;;;30.26;70.81;100652.22;5116506;27;69707;-37
2021/07/24 01:10:17;;;;;;;14.00;6.63;;;;;;;30.28;70.92;100650.97;5118601;27;65314;-37
2021/07/24 01:12:54;;;;;;;10.57;6.20;;;;;;;30.30;70.67;100669.66;5116578;27;70052;-37
2021/07/24 01:15:39;;;;;;;10.15;7.40;;;;;;;30.30;70.88;100658.00;5110754;27;66564;-36
2021/07/24 01:18:11;;;;;;;;;;;;;;;30.10;72.27;100667.09;5113639;27;69801;-37
2021/07/24 01:20:45;;;;;;;9.57;6.25;;;;;;;30.36;70.29;100663.34;5115427;27;66739;-36
2021/07/24 01:23:18;;;;;;;11.98;6.32;;;;;;;30.40;70.85;100669.19;5122045;27;70551;-36
2021/07/24 01:25:53;;;;;;;10.10;5.53;;;;;;;30.17;70.80;100621.91;5116687;27;66484;-36
2021/07/24 01:28:30;;;;;;;7.40;6.22;;;;;;;30.17;70.93;100632.72;5113249;27;70044;-36
2021/07/24 01:31:04;;;;;;;13.43;5.75;;;;;;;30.46;70.27;100673.69;5119103;27;65388;-36
2021/07/24 01:33:36;;;;;;;11.93;5.72;;;;;;;30.45;70.59;100678.28;5124227;27;69966;-38
2021/07/24 01:36:09;;;;;;;;;;;;;;;30.24;71.88;100671.38;5111269;27;65726;-40
2021/07/24 01:38:52;;;;;;;14.50;5.80;;;;;;;30.54;70.85;100681.53;5111344;27;70230;-39
2021/07/24 01:41:36;;;;;;;9.18;4.88;;;;;;;30.53;70.47;100677.16;5118344;27;65904;-37
2021/07/24 01:44:14;;;;;;;13.45;6.22;;;;;;;30.63;70.61;100685.59;5136211;27;70200;-37
2021/07/24 01:46:46;;;;;;;18.63;5.78;;;;;;;30.55;70.00;100664.22;5116980;27;66636;-37
2021/07/24 01:52:47;;;;;;;14.75;5.07;;;;;;;30.61;70.44;100649.78;5108772;27;65315;-36
2021/07/24 01:55:50;;;;;;;7.05;4.68;;;;;;;30.58;69.91;100655.66;5093905;27;69211;-36
2021/07/24 01:58:36;;;;;;;14.15;5.07;;;;;;;30.62;70.30;100651.47;5110492;27;66994;-36
2021/07/24 02:01:20;;;;;;;8.48;5.00;;;;;;;30.77;70.22;100680.06;5120292;27;70220;-37
2021/07/24 02:04:04;;;;;;;7.28;4.93;;;;;;;30.80;69.98;100679.63;5106144;27;66666;-39
2021/07/24 02:06:53;;;;;;;9.65;4.60;;;;;;;30.79;69.38;100680.66;5113241;27;69831;-38
2021/07/24 02:09:29;;;;;;;10.98;5.47;;;;;;;30.83;68.87;100676.47;5110051;27;64966;-36
2021/07/24 02:12:14;;;;;;;10.77;5.05;;;;;;;30.85;69.18;100677.09;5110330;27;70863;-37
2021/07/24 02:14:59;;;;;;;10.80;4.40;;;;;;;30.79;70.18;100657.13;5102198;27;65252;-36
2021/07/24 02:17:39;;;;;;;12.85;4.78;;;;;;;30.91;70.04;100687.00;5110576;27;70087;-38
2021/07/24 02:20:19;;;;;;;14.48;4.55;;;;;;;30.91;69.27;100670.75;5107468;27;66161;-37
2021/07/24 02:22:55;;;;;;;9.77;4.65;;;;;;;30.93;69.01;100671.38;5109741;27;69180;-37
2021/07/24 02:25:30;;;;;;;11.80;4.97;;;;;;;30.93;68.59;100668.66;5109203;27;66716;-37
2021/07/24 02:28:06;;;;;;;7.43;4.35;;;;;;;30.87;68.95;100664.97;5083448;27;70315;-37
2021/07/24 02:30:41;;;;;;;12.80;4.40;;;;;;;30.98;68.99;100676.94;5097426;27;65789;-37
2021/07/24 02:33:19;;;;;;;7.82;4.30;;;;;;;31.01;68.35;100684.63;5113418;27;69024;-37
2021/07/24 02:36:27;;;;;;;4.63;3.55;;;;;;;31.03;68.75;100701.44;5114488;27;65945;-37
2021/07/24 02:39:03;;;;;;;8.95;4.05;;;;;;;31.07;68.15;100697.25;5097437;27;70398;-37
2021/07/24 02:41:41;;;;;;;11.75;4.30;;;;;;;31.09;68.20;100697.00;5112893;27;66971;-37
2021/07/24 02:44:19;;;;;;;6.40;3.50;;;;;;;31.12;67.51;100699.25;5111117;27;70075;-38
2021/07/24 02:46:54;;;;;;;4.93;3.40;;;;;;;31.13;68.03;100690.91;5093623;27;65401;-37
2021/07/24 02:49:32;;;;;;;10.65;4.72;;;;;;;31.20;67.45;100687.28;5120126;27;68920;-37
2021/07/24 02:52:06;;;;;;;13.20;4.20;;;;;;;31.22;67.73;100698.75;5061565;27;65277;-38
2021/07/24 02:54:53;;;;;;;11.70;3.85;;;;;;;31.24;67.49;100691.22;5111758;27;69292;-38
2021/07/24 02:57:29;;;;;;;9.50;3.65;;;;;;;31.28;67.25;100697.81;5095751;27;65879;-38
2021/07/24 03:00:11;;;;;;;10.45;4.45;;;;;;;31.27;67.15;100690.75;5117496;27;69594;-38
2021/07/24 03:02:46;;;;;;;9.40;3.88;;;;;;;31.29;67.55;100688.66;5093193;27;66377;-40
2021/07/24 03:05:25;;;;;;;8.50;4.10;;;;;;;31.31;67.13;100697.38;5110527;27;70336;-39
2021/07/24 03:08:01;;;;;;;9.05;3.80;;;;;;;31.36;66.66;100695.66;5113801;27;66595;-37
2021/07/24 03:10:37;;;;;;;6.78;3.55;;;;;;;31.38;66.89;100700.88;5122024;27;69058;-37
2021/07/24 03:13:14;;;;;;;7.57;3.67;;;;;;;31.38;66.69;100690.03;5115111;27;65422;-41
2021/07/24 03:15:48;;;;;;;12.55;3.60;;;;;;;31.41;65.90;100686.84;5110952;27;69304;-37
2021/07/24 03:18:19;;;;;;;11.43;3.10;;;;;;;31.46;65.86;100692.44;5116198;27;66195;-37
2021/07/24 03:21:03;;;;;;;5.82;3.15;;;;;;;31.51;65.73;100675.44;5111774;27;70285;-36
2021/07/24 03:23:39;;;;;;;17.05;4.07;;;;;;;31.51;65.19;100681.72;5085493;27;66183;-36
2021/07/24 03:26:19;;;;;;;10.70;3.10;;;;;;;31.60;65.01;100674.91;5096070;27;69253;-37
2021/07/24 03:28:53;;;;;;;8.52;3.17;;;;;;;31.62;64.66;100671.97;5110506;27;66596;-38
2021/07/24 03:31:33;;;;;;;10.80;3.38;;;;;;;31.66;64.96;100661.50;5094521;27;69926;-37
2021/07/24 03:34:03;;;;;;;22.23;3.70;;;;;;;31.67;65.30;100657.72;5101518;27;66236;-36
2021/07/24 03:36:39;;;;;;;5.93;3.60;;;;;;;31.67;65.83;100657.72;5115878;27;70184;-36
2021/07/24 03:39:13;;;;;;;9.88;3.60;;;;;;;31.65;65.67;100660.69;5111785;27;68392;-35
2021/07/24 03:41:46;;;;;;;6.57;3.33;;;;;;;31.66;66.00;100661.50;5113973;27;70423;-36
2021/07/24 03:44:21;;;;;;;6.07;3.40;;;;;;;31.61;66.00;100676.56;5114221;27;66255;-48
2021/07/24 03:46:54;;;;;;;5.63;3.57;;;;;;;31.66;65.91;100673.16;5110676;27;70207;-36
2021/07/24 03:49:26;;;;;;;4.40;3.15;;;;;;;31.68;65.38;100664.78;5105605;27;66543;-36
2021/07/24 03:52:11;;;;;;;8.05;3.40;;;;;;;31.72;64.96;100666.00;5112481;27;68551;-36
2021/07/24 03:54:47;;;;;;;6.00;3.50;;;;;;;31.72;64.83;100669.53;5108635;27;65605;-36
2021/07/24 03:57:18;;;;;;;6.00;3.10;;;;;;;31.75;64.73;100671.78;5105908;27;70227;-36
2021/07/24 03:59:55;;;;;;;6.78;3.00;;;;;;;31.77;64.65;100674.25;5094863;27;65575;-36
2021/07/24 04:02:29;;;;;;;13.07;3.55;;;;;;;31.76;64.83;100668.03;5108887;27;69728;-36
2021/07/24 04:05:02;;;;;;;8.18;3.45;;;;;;;31.79;64.63;100651.28;5081764;27;66033;-36
2021/07/24 04:07:41;;;;;;;12.27;3.78;;;;;;;31.78;64.70;100649.59;5093405;27;70109;-36
2021/07/24 04:10:19;;;;;;;10.32;3.70;;;;;;;31.80;65.00;100646.69;5110392;27;66761;-35
2021/07/24 04:13:05;;;;;;;8.15;3.38;;;;;;;31.79;64.81;100632.28;5109462;27;70219;-36
2021/07/24 04:15:46;;;;;;;11.77;3.25;;;;;;;31.81;64.82;100622.03;5115750;27;66094;-36
2021/07/24 04:18:25;;;;;;;10.68;3.60;;;;;;;31.79;64.74;100621.44;5094047;27;71158;-36
2021/07/24 04:21:05;;;;;;;19.30;3.92;;;;;;;31.81;64.92;100623.91;5107257;27;65502;-36
2021/07/24 04:23:36;;;;;;;13.52;3.00;;;;;;;31.80;64.63;100614.13;5111767;27;69940;-36
2021/07/24 04:26:11;;;;;;;7.18;3.45;;;;;;;31.80;64.90;100614.13;5112589;27;65909;-36
2021/07/24 04:28:55;;;;;;;11.68;3.15;;;;;;;31.76;65.21;100618.34;5110341;27;69946;-36
2021/07/24 04:31:28;;;;;;;4.22;3.00;;;;;;;31.81;65.41;100629.34;5109954;27;65825;-35
2021/07/24 04:34:00;;;;;;;9.27;3.40;;;;;;;31.83;65.21;100619.91;5097261;27;69538;-36
2021/07/24 04:36:34;;;;;;;9.60;4.88;;;;;;;31.84;65.62;100620.72;5064380;27;64719;-35
2021/07/24 04:39:17;;;;;;;12.02;6.65;;;;;;;31.84;66.14;100615.31;5108722;27;70202;-35
2021/07/24 04:41:52;;;;;;;12.77;7.38;;;;;;;31.87;66.23;100622.97;5110649;27;65582;-35
2021/07/24 04:44:24;;;;;;;16.05;6.07;;;;;;;31.89;66.38;100612.72;5112432;27;70712;-35
2021/07/24 04:46:55;;;;;;;7.78;5.38;;;;;;;31.91;66.27;100598.94;5067070;27;65318;-36
2021/07/24 04:49:34;;;;;;;12.88;4.85;;;;;;;31.90;65.85;100598.13;5128292;27;69993;-38
2021/07/24 04:52:13;;;;;;;13.32;4.35;;;;;;;31.81;63.52;100594.06;5111052;27;65691;-37
2021/07/24 04:54:47;;;;;;;6.53;3.58;;;;;;;31.71;62.32;100605.50;5094595;27;69770;-37
2021/07/24 04:57:29;;;;;;;4.93;3.13;;;;;;;31.58;61.13;100595.69;5106484;27;66296;-37
2021/07/24 05:00:06;;;;;;;12.32;1.90;;;;;;;31.49;59.71;100594.38;5112922;27;69477;-39
2021/07/24 05:02:42;;;;;;;18.02;2.55;;;;;;;31.40;59.45;100582.22;5111615;27;66744;-37
2021/07/24 05:05:15;;;;;;;21.13;2.88;;;;;;;31.29;57.92;100580.25;5110419;27;69202;-37
2021/07/24 05:07:49;;;;;;;10.32;2.15;;;;;;;31.22;58.46;100590.34;5110325;27;66404;-38
2021/07/24 05:10:23;;;;;;;7.15;1.80;;;;;;;31.20;57.97;100582.44;5109830;27;69760;-37
2021/07/24 05:13:01;;;;;;;15.63;1.42;;;;;;;31.11;56.33;100567.56;5124239;27;66145;-38
2021/07/24 05:15:43;;;;;;;3.42;1.42;;;;;;;31.08;56.64;100568.03;5091407;27;69345;-39
2021/07/24 05:18:24;;;;;;;6.70;1.20;;;;;;;30.87;55.61;100544.97;5082875;27;66178;-38
2021/07/24 05:20:58;;;;;;;2.47;1.00;;;;;;;31.01;55.43;100551.88;5113071;27;69112;-37
2021/07/24 05:23:35;;;;;;;1.92;1.13;;;;;;;30.99;54.98;100548.56;5086020;27;66548;-38
2021/07/24 05:26:15;;;;;;;12.93;1.23;;;;;;;30.90;55.04;100539.94;5093604;27;70444;-37
2021/07/24 05:28:50;;;;;;;10.40;1.23;;;;;;;30.85;54.77;100536.25;5096155;27;65358;-38
2021/07/24 05:31:30;;;;;;;5.50;1.05;;;;;;;30.89;53.93;100537.44;5101215;27;69886;-38
2021/07/24 05:34:04;;;;;;;16.75;1.77;;;;;;;30.86;55.33;100532.47;5112526;27;65960;-38
2021/07/24 05:36:45;;;;;;;16.35;1.75;;;;;;;30.90;53.79;100549.94;5106024;27;68986;-37
2021/07/24 05:39:21;;;;;;;7.45;1.45;;;;;;;30.79;53.87;100537.97;5108386;27;66280;-38
2021/07/24 05:42:04;;;;;;;13.15;1.30;;;;;;;30.85;53.82;100557.94;5105852;27;69159;-38
2021/07/24 05:44:35;;;;;;;5.00;1.15;;;;;;;30.80;53.38;100550.47;5109736;27;65377;-39
2021/07/24 05:47:08;;;;;;;9.73;1.00;;;;;;;30.78;52.50;100540.88;5107917;27;69798;-39
2021/07/24 05:49:44;;;;;;;5.68;1.13;;;;;;;30.78;52.11;100535.47;5088797;27;66007;-38
2021/07/24 05:52:21;;;;;;;1.48;0.82;;;;;;;30.72;50.93;100538.03;5104886;27;70661;-38
2021/07/24 05:54:54;;;;;;;2.15;0.93;;;;;;;30.72;50.83;100527.19;5106300;27;64733;-38
2021/07/24 05:57:30;;;;;;;4.05;0.88;;;;;;;30.71;51.59;100528.28;5063009;27;69307;-38
2021/07/24 06:00:17;;;;;;;1.10;0.70;;;;;;;30.72;49.21;100519.09;5110676;27;65500;-36
2021/07/24 06:02:49;;;;;;;2.17;1.17;;;;;;;30.75;50.79;100508.84;5090441;27;70154;-38
2021/07/24 06:05:28;;;;;;;1.48;0.60;;;;;;;30.76;49.88;100515.91;5110787;27;64699;-37
2021/07/24 06:08:07;;;;;;;2.42;1.20;;;;;;;30.77;48.54;100501.34;5111462;27;69670;-38
2021/07/24 06:10:46;;;;;;;2.00;0.70;;;;;;;30.76;47.84;100515.91;5111613;27;67699;-38
2021/07/24 06:13:21;;;;;;;1.92;0.75;;;;;;;30.76;47.73;100499.66;5102851;27;70433;-38
2021/07/24 06:15:53;;;;;;;1.13;0.60;;;;;;;30.78;47.75;100500.28;5105570;27;66864;-37
2021/07/24 06:18:27;;;;;;;3.95;0.50;;;;;;;30.78;47.89;100502.97;5088308;27;69135;-39
2021/07/24 06:21:06;;;;;;;2.40;0.90;;;;;;;30.82;48.73;100510.47;5128057;27;66132;-39
2021/07/24 06:23:48;;;;;;;1.40;0.65;;;;;;;30.66;47.17;100479.38;5109970;27;69970;-39
2021/07/24 06:26:37;;;;;;;2.03;0.63;;;;;;;30.76;47.12;100480.72;5112204;27;65674;-38
2021/07/24 06:29:16;;;;;;;2.25;0.85;;;;;;;30.78;47.54;100478.59;5109652;27;70370;-38
2021/07/24 06:31:54;;;;;;;1.85;0.90;;;;;;;30.71;46.21;100498.47;5120386;27;65442;-38
2021/07/24 06:34:29;;;;;;;1.10;0.80;;;;;;;30.81;46.11;100499.84;5099282;27;70099;-38
2021/07/24 06:37:03;;;;;;;0.95;0.70;;;;;;;30.81;46.18;100486.31;5124845;27;65166;-39
2021/07/24 06:40:00;;;;;;;2.03;0.90;;;;;;;30.80;45.71;100490.06;5117514;27;70187;-39
2021/07/24 06:42:38;;;;;;;1.60;0.88;;;;;;;30.86;46.56;100494.56;5115245;27;64960;-38
2021/07/24 06:45:27;;;;;;;2.35;0.90;;;;;;;30.83;46.85;100486.91;5098361;27;69726;-38
2021/07/24 06:48:02;;;;;;;4.35;0.90;;;;;;;30.80;47.33;100484.66;5106623;27;66863;-38
2021/07/24 06:50:44;;;;;;;2.07;0.80;;;;;;;30.81;47.17;100486.31;5105294;27;70052;-37
2021/07/24 06:53:17;;;;;;;1.98;0.80;;;;;;;30.81;47.12;100491.72;5109602;27;66515;-37
2021/07/24 06:55:57;;;;;;;2.67;0.82;;;;;;;30.79;45.39;100483.81;5109651;27;69827;-38
2021/07/24 06:59:05;;;;;;;2.83;0.70;;;;;;;30.81;46.17;100480.88;5101775;27;65595;-37
2021/07/24 07:01:44;;;;;;;2.28;0.82;;;;;;;30.80;46.33;100487.38;5111415;27;70107;-38
2021/07/24 07:04:18;;;;;;;0.95;0.60;;;;;;;30.72;46.48;100483.88;5116439;27;68057;-38
2021/07/24 07:06:52;;;;;;;5.05;0.60;;;;;;;30.79;45.62;100483.81;5110957;27;69669;-37
2021/07/24 07:09:27;;;;;;;3.38;0.80;;;;;;;30.81;45.21;100475.47;5110556;27;66153;-36
2021/07/24 07:12:14;;;;;;;4.88;0.80;;;;;;;30.74;45.59;100467.41;5105196;27;70623;-36
2021/07/24 07:14:51;;;;;;;1.67;0.80;;;;;;;30.85;45.39;100479.38;5108081;27;66475;-36
2021/07/24 07:17:27;;;;;;;2.17;0.93;;;;;;;30.84;45.30;100475.00;5101723;27;70849;-36
2021/07/24 07:20:12;;;;;;;1.40;0.80;;;;;;;30.84;44.51;100473.16;5096334;27;66180;-38
2021/07/24 07:22:59;;;;;;;1.55;0.90;;;;;;;30.88;45.52;100481.63;5109386;27;70679;-38
2021/07/24 07:25:39;;;;;;;1.30;0.93;;;;;;;30.79;44.97;100455.91;5116860;27;66481;-37
2021/07/24 07:28:16;;;;;;;1.25;0.50;;;;;;;30.88;44.59;100468.09;5115426;27;69970;-38
2021/07/24 07:31:20;;;;;;;1.77;0.70;;;;;;;30.85;44.78;100455.00;5113955;27;66235;-37
2021/07/24 07:34:03;;;;;;;1.00;0.50;;;;;;;30.87;44.35;100469.13;5119608;27;68523;-37
2021/07/24 07:36:37;;;;;;;0.95;0.52;;;;;;;30.86;44.36;100464.78;5100004;27;65333;-38
2021/07/24 07:39:19;;;;;;;2.43;0.57;;;;;;;30.84;44.96;100464.19;5117706;27;69297;-37
2021/07/24 07:41:54;;;;;;;6.13;1.00;;;;;;;30.88;45.83;100465.38;5102208;27;67424;-38
2021/07/24 07:44:59;;;;;;;13.15;1.00;;;;;;;30.92;46.57;100463.84;5120561;27;69964;-38
2021/07/24 07:47:59;;;;;;;6.03;0.60;;;;;;;30.72;46.14;100454.09;5129653;27;66111;-39
2021/07/24 07:50:32;;;;;;;5.15;0.77;;;;;;;30.89;46.96;100477.84;5114600;27;70878;-38
2021/07/24 07:53:06;;;;;;;1.85;0.98;;;;;;;30.94;46.05;100459.03;5122082;27;66018;-38
2021/07/24 07:55:48;;;;;;;1.65;1.02;;;;;;;30.95;46.04;100455.25;5117914;27;69959;-38
2021/07/24 07:58:25;;;;;;;1.50;0.73;;;;;;;30.96;46.13;100440.69;5118612;27;66055;-39
2021/07/24 08:01:00;;;;;;;2.33;0.90;;;;;;;30.97;45.60;100453.16;5112696;27;70120;-38
2021/07/24 08:03:52;;;;;;;1.25;0.70;;;;;;;30.96;45.09;100456.94;5100549;27;66606;-40
2021/07/24 08:06:27;;;;;;;1.75;0.73;;;;;;;30.97;45.78;100438.78;5116163;27;70880;-39
2021/07/24 08:09:06;;;;;;;5.72;0.70;;;;;;;30.98;45.90;100435.88;5118438;27;66374;-38
2021/07/24 08:11:40;;;;;;;4.50;1.10;;;;;;;31.00;45.09;100431.03;5118513;27;69923;-37
2021/07/24 08:14:25;;;;;;;2.97;1.20;;;;;;;31.01;45.51;100427.28;5099790;27;65307;-36
2021/07/24 08:17:25;;;;;;;6.83;0.93;;;;;;;31.01;45.75;100413.72;5026194;27;3024675;-36
2021/07/24 08:20:10;;;;;;;2.97;0.80;;;;;;;31.04;45.41;100409.75;5109857;27;69927;-36
2021/07/24 08:22:46;;;;;;;5.38;1.38;;;;;;;31.03;45.40;100408.06;5111775;27;65485;-36
2021/07/24 08:25:21;;;;;;;4.15;1.13;;;;;;;31.03;45.18;100408.06;5134052;27;70135;-37
2021/07/24 08:28:17;;;;;;;3.13;1.20;;;;;;;30.95;44.80;100411.94;5127862;27;66254;-35
2021/07/24 08:31:00;;;;;;;3.35;1.50;;;;;;;31.03;45.17;100414.31;5118416;27;69273;-38
2021/07/24 08:33:31;;;;;;;2.45;1.48;;;;;;;31.04;45.75;100432.22;5099821;27;66343;-36
2021/07/24 08:36:03;;;;;;;2.88;1.23;;;;;;;31.03;45.97;100416.19;5129176;27;70022;-37
2021/07/24 08:38:41;;;;;;;3.20;1.10;;;;;;;30.98;44.82;100400.66;5133477;27;65571;-36
2021/07/24 08:41:19;;;;;;;4.40;1.10;;;;;;;31.05;45.29;100406.78;5115814;27;69851;-36
2021/07/24 08:43:58;;;;;;;5.78;1.35;;;;;;;31.04;44.56;100399.72;5126482;27;65304;-36
2021/07/24 08:46:33;;;;;;;10.18;1.63;;;;;;;31.00;44.58;100398.53;5137604;27;70254;-36
2021/07/24 08:49:07;;;;;;;4.03;1.00;;;;;;;31.02;44.84;100407.25;5131247;27;66914;-36
2021/07/24 08:51:46;;;;;;;2.25;1.23;;;;;;;31.00;44.95;100400.41;5111781;27;70303;-36
2021/07/24 08:54:21;;;;;;;11.75;2.05;;;;;;;31.08;49.46;100400.88;5115839;27;65116;-35
2021/07/24 08:57:07;;;;;;;7.32;2.78;;;;;;;31.13;51.61;100381.25;5100250;27;69994;-36
2021/07/24 08:59:41;;;;;;;16.67;3.40;;;;;;;31.40;53.23;100395.19;5110554;27;65257;-36
2021/07/24 09:02:28;;;;;;;11.50;3.58;;;;;;;31.58;57.51;100389.63;5106622;27;70504;-35
2021/07/24 09:05:07;;;;;;;14.38;3.55;;;;;;;31.77;58.51;100387.63;5111968;27;66097;-43
2021/07/24 09:07:46;;;;;;;7.13;4.05;;;;;;;31.92;59.97;100389.84;5127193;27;69653;-36
2021/07/24 09:10:20;;;;;;;11.07;4.75;;;;;;;32.03;59.21;100383.56;5113767;27;65982;-47
2021/07/24 09:13:01;;;;;;;7.85;4.65;;;;;;;32.12;58.86;100389.44;5109835;27;68869;-37
2021/07/24 09:15:32;;;;;;;16.67;4.90;;;;;;;32.19;58.88;100379.28;5101239;27;65624;-36
2021/07/24 09:18:08;;;;;;;9.98;4.13;;;;;;;32.15;58.75;100369.16;5109521;27;69626;-36
2021/07/24 09:20:42;;;;;;;12.70;4.90;;;;;;;32.33;58.78;100384.44;5076744;27;64731;-36
2021/07/24 09:23:28;;;;;;;12.82;4.40;;;;;;;32.25;59.19;100361.22;5086898;27;69559;-36
2021/07/24 09:26:08;;;;;;;6.00;3.90;;;;;;;32.45;58.17;100377.88;5091119;27;66096;-35
2021/07/24 09:29:15;;;;;;;11.23;5.18;;;;;;;32.41;58.91;100376.72;5078930;27;70074;-35
2021/07/24 09:31:53;;;;;;;19.30;5.40;;;;;;;32.55;59.46;100392.75;5100003;27;64701;-35
2021/07/24 09:34:42;;;;;;;17.73;4.88;;;;;;;32.57;59.42;100401.47;5062803;27;70875;-35
2021/07/24 09:37:30;;;;;;;16.83;5.30;;;;;;;32.61;59.98;100391.78;5072610;27;66213;-36
2021/07/24 09:40:22;;;;;;;13.32;5.18;;;;;;;32.62;60.76;100385.25;5083631;27;70215;-40
2021/07/24 09:43:04;;;;;;;10.15;5.60;;;;;;;32.73;60.46;100381.66;5076556;27;65478;-36
2021/07/24 09:45:38;;;;;;;10.20;5.80;;;;;;;32.75;60.37;100382.25;5072866;27;69619;-36
2021/07/24 09:48:19;;;;;;;14.60;5.38;;;;;;;32.78;60.70;100387.19;5077120;27;65876;-35
2021/07/24 09:50:53;;;;;;;15.43;5.32;;;;;;;32.79;60.43;100382.56;5093805;27;69341;-36
2021/07/24 09:53:52;;;;;;;12.45;5.03;;;;;;;32.81;60.18;100394.84;5076339;27;66014;-36
2021/07/24 09:56:39;;;;;;;12.05;5.30;;;;;;;32.81;61.03;100402.16;5096912;27;69432;-35
2021/07/24 09:59:27;;;;;;;15.38;5.05;;;;;;;32.83;60.22;100400.84;5095729;27;66262;-35
2021/07/24 10:02:01;;;;;;;10.25;4.50;;;;;;;32.84;60.19;100407.94;5068200;27;70245;-36
2021/07/24 10:04:36;;;;;;;8.18;4.15;;;;;;;32.80;60.24;100395.91;5077334;27;65387;-35
2021/07/24 10:07:31;;;;;;;15.88;4.70;;;;;;;32.87;60.49;100396.56;5081215;27;70346;-35
2021/07/24 10:10:18;;;;;;;10.93;4.57;;;;;;;32.77;60.01;100395.59;5066336;27;65316;-36
2021/07/24 10:12:51;;;;;;;10.57;4.57;;;;;;;32.86;60.72;100424.81;5073613;27;70406;-35
2021/07/24 10:15:25;;;;;;;6.45;4.50;;;;;;;32.87;60.88;100412.06;5092399;27;65738;-36
2021/07/24 10:18:00;;;;;;;6.93;4.65;;;;;;;32.88;60.82;100425.41;5074546;27;71748;-35
2021/07/24 10:20:39;;;;;;;11.63;5.00;;;;;;;32.74;60.22;100405.06;5090169;27;66206;-35
2021/07/24 10:23:14;;;;;;;10.60;5.40;;;;;;;32.87;60.38;100437.31;5089723;27;70167;-35
2021/07/24 10:26:20;;;;;;;11.20;5.30;;;;;;;32.84;60.52;100423.41;5097497;27;66261;-35
2021/07/24 10:29:30;;;;;;;8.40;5.13;;;;;;;32.79;60.58;100426.88;5094681;27;69063;-36
2021/07/24 10:32:25;;;;;;;9.48;5.63;;;;;;;32.70;60.21;100412.03;5094731;27;66585;-36
2021/07/24 10:35:03;;;;;;;11.50;5.45;;;;;;;32.83;60.13;100432.63;5062302;27;69997;-36
2021/07/24 10:37:49;;;;;;;8.98;5.38;;;;;;;32.83;60.39;100441.59;5082979;27;65362;-35
2021/07/24 10:40:34;;;;;;;11.05;5.63;;;;;;;32.83;60.91;100444.31;5079252;27;69092;-35
2021/07/24 10:43:06;;;;;;;7.97;4.72;;;;;;;32.81;60.64;100446.44;5058159;27;64627;-34
2021/07/24 10:45:52;;;;;;;11.27;5.93;;;;;;;32.79;60.95;100443.19;5085301;27;70286;-36
2021/07/24 10:48:24;;;;;;;12.13;5.80;;;;;;;32.84;60.84;100461.44;5042669;27;65931;-35
2021/07/24 10:51:01;;;;;;;11.30;5.55;;;;;;;32.85;61.12;100461.22;5086927;27;69996;-33
2021/07/24 10:54:02;;;;;;;8.18;6.20;;;;;;;32.76;61.39;100461.81;5076921;27;65641;-34
2021/07/24 10:56:42;;;;;;;11.52;6.70;;;;;;;32.69;61.27;100445.69;5088765;27;69550;-35
2021/07/24 10:59:25;;;;;;;11.05;5.63;;;;;;;32.80;61.67;100461.13;5094061;27;66309;-35
2021/07/24 11:01:58;;;;;;;11.52;5.00;;;;;;;32.79;61.71;100459.47;5084488;27;68925;-35
2021/07/24 11:04:37;;;;;;;;;;;;;;;32.49;62.52;100465.97;5077776;27;65975;-35
2021/07/24 11:07:29;;;;;;;7.45;4.45;;;;;;;32.76;61.73;100469.97;5077242;27;70162;-35
2021/07/24 11:10:22;;;;;;;6.22;4.47;;;;;;;32.72;61.83;100472.38;5095580;27;66523;-35
2021/07/24 11:12:54;;;;;;;5.18;4.63;;;;;;;32.71;62.19;100484.31;5042619;27;69884;-36
2021/07/24 11:15:43;;;;;;;7.95;4.65;;;;;;;32.72;62.05;100475.09;5057364;27;66759;-35
2021/07/24 11:18:30;;;;;;;4.80;3.78;;;;;;;32.69;62.07;100470.13;5092380;27;69724;-36
2021/07/24 11:21:07;;;;;;;4.93;4.35;;;;;;;32.70;61.98;100483.47;5091017;27;63937;-36
2021/07/24 11:24:12;;;;;;;6.70;3.85;;;;;;;32.62;62.49;100491.16;5075984;27;69986;-37
2021/07/24 11:26:58;;;;;;;5.10;4.57;;;;;;;32.61;62.70;100487.63;5073693;27;66070;-37
2021/07/24 11:29:28;;;;;;;4.65;4.22;;;;;;;32.65;62.24;100485.25;5043313;27;69352;-36
2021/07/24 11:32:24;;;;;;;9.05;4.15;;;;;;;32.66;62.34;100486.91;5077261;27;66074;-35
2021/07/24 11:35:16;;;;;;;7.47;5.32;;;;;;;32.62;62.78;100491.16;5049085;27;69628;-34
2021/07/24 11:37:57;;;;;;;10.90;5.57;;;;;;;32.62;62.20;100491.16;5090208;27;66087;-34
2021/07/24 11:40:33;;;;;;;16.08;6.28;;;;;;;32.61;62.34;100495.78;5075150;27;70262;-35
2021/07/24 11:43:11;;;;;;;11.63;5.90;;;;;;;32.60;62.34;100496.03;5064479;27;65631;-34
2021/07/24 11:45:45;;;;;;;8.95;6.60;;;;;;;32.58;62.53;100495.44;5071183;27;69403;-37
2021/07/24 11:48:40;;;;;;;14.57;7.47;;;;;;;32.62;62.61;100507.47;5063012;27;64889;-34
2021/07/24 11:51:22;;;;;;;10.38;8.15;;;;;;;32.51;62.82;100489.31;5087550;27;69933;-36
2021/07/24 11:54:03;;;;;;;;;;;;;;;32.28;63.67;100507.28;5093340;27;64493;-33
2021/07/24 11:56:51;;;;;;;22.08;8.23;;;;;;;32.56;62.71;100505.72;5092506;27;70081;-37
2021/07/24 11:59:31;;;;;;;13.13;7.63;;;;;;;32.48;63.01;100490.63;5058280;27;65533;-34
2021/07/24 12:02:18;;;;;;;8.88;6.57;;;;;;;32.57;63.01;100516.34;5093233;27;71044;-34
2021/07/24 12:04:53;;;;;;;12.93;6.03;;;;;;;32.56;62.76;100513.84;5076821;27;64299;-35
2021/07/24 12:07:27;;;;;;;8.35;6.40;;;;;;;32.55;63.11;100517.66;5073873;27;70920;-34
2021/07/24 12:10:04;;;;;;;11.32;6.68;;;;;;;32.53;62.95;100517.88;5092709;27;66121;-35
2021/07/24 12:12:38;;;;;;;8.88;6.00;;;;;;;32.55;63.15;100529.34;5090132;27;70413;-37
2021/07/24 12:15:14;;;;;;;6.43;4.90;;;;;;;32.55;63.40;100528.50;5078312;27;66300;-36
2021/07/24 12:17:51;;;;;;;9.25;5.43;;;;;;;32.55;63.76;100528.50;5076061;27;70351;-35
2021/07/24 12:20:28;;;;;;;6.78;4.63;;;;;;;32.56;63.73;100524.72;5055296;27;66650;-36